PWSweather.com
Personal Weather Stations
Station Observations

PoschiavoCH

Lat: 46.31962499999999, Lon: 10.066551000000004

Elevation: 3517

Station Type: WH 1080

http://www.meteoposchiavo.com

High Low Average
Temperature 83.0°F28.3°C 54.0°F12.2°C 64.4°F18.0°C
Dew Point 65.8°F18.8°C 49.0°F9.4°C 55.0°F12.8°C
Winds 2.3 mph 3.7 kmh Calm Calm Calm SECalm SE
Wind Gusts 6.9 mph11.1 kmh -- --
Humidity 99% 40% 75%
Pressure 26.62 in901.5 mb 26.49 in897.1 mb -
Precipitation 1.37 in34.8 mm - -
Hour Temp Dew Point Humidity Winds Wind Gusts Pressure Precip Precip Rate Daily Precip Total
12:00 AM 61.0°F16.1°C 55.8°F13.2°C 83% Calm Calm -- 26.62 in901.5 mb - 0.00 in0.0 mm 0.00 in0.0 mm
12:10 AM 61.0°F16.1°C 56.5°F13.6°C 85% Calm Calm -- 26.61 in901.1 mb - 0.00 in0.0 mm 0.00 in0.0 mm
12:15 AM 61.0°F16.1°C 56.1°F13.4°C 84% Calm Calm -- 26.62 in901.5 mb - 0.00 in0.0 mm 0.00 in0.0 mm
12:20 AM 61.0°F16.1°C 56.8°F13.8°C 86% Calm Calm -- 26.62 in901.5 mb - 0.00 in0.0 mm 0.00 in0.0 mm
12:25 AM 61.0°F16.1°C 56.5°F13.6°C 85% Calm Calm -- 26.62 in901.5 mb - 0.00 in0.0 mm 0.00 in0.0 mm
12:30 AM 61.0°F16.1°C 55.8°F13.2°C 83% Calm Calm -- 26.61 in901.1 mb - 0.00 in0.0 mm 0.00 in0.0 mm
12:35 AM 62.0°F16.7°C 56.4°F13.6°C 82% Calm Calm -- 26.61 in901.1 mb - 0.00 in0.0 mm 0.00 in0.0 mm
12:40 AM 61.0°F16.1°C 56.5°F13.6°C 85% Calm Calm -- 26.61 in901.1 mb - 0.00 in0.0 mm 0.00 in0.0 mm
12:45 AM 61.0°F16.1°C 56.5°F13.6°C 85% Calm Calm -- 26.61 in901.1 mb - 0.00 in0.0 mm 0.00 in0.0 mm
12:50 AM 61.0°F16.1°C 56.5°F13.6°C 85% Calm Calm -- 26.61 in901.1 mb - 0.00 in0.0 mm 0.00 in0.0 mm
12:55 AM 60.6°F15.9°C 56.1°F13.4°C 85% Calm Calm -- 26.61 in901.1 mb - 0.00 in0.0 mm 0.00 in0.0 mm
01:00 AM 60.0°F15.6°C 55.5°F13.1°C 85% Calm Calm -- 26.61 in901.1 mb - 0.00 in0.0 mm 0.00 in0.0 mm
01:10 AM 60.0°F15.6°C 55.5°F13.1°C 85% Calm Calm -- 26.62 in901.5 mb - 0.00 in0.0 mm 0.00 in0.0 mm
01:15 AM 61.0°F16.1°C 56.8°F13.8°C 86% Calm Calm -- 26.62 in901.5 mb - 0.00 in0.0 mm 0.00 in0.0 mm
01:20 AM 61.0°F16.1°C 55.8°F13.2°C 83% Calm Calm 1.2 mph1.9 kmh 26.61 in901.1 mb - 0.00 in0.0 mm 0.00 in0.0 mm
01:25 AM 61.6°F16.4°C 55.7°F13.2°C 81% Calm Calm 1.2 mph1.9 kmh 26.62 in901.5 mb - 0.00 in0.0 mm 0.00 in0.0 mm
01:30 AM 62.0°F16.7°C 55.4°F13.0°C 79% Calm Calm -- 26.62 in901.5 mb - 0.00 in0.0 mm 0.00 in0.0 mm
01:35 AM 62.0°F16.7°C 56.8°F13.8°C 83% Calm Calm -- 26.62 in901.5 mb - 0.00 in0.0 mm 0.00 in0.0 mm
01:40 AM 61.0°F16.1°C 57.1°F13.9°C 87% Calm Calm -- 26.62 in901.5 mb - 0.00 in0.0 mm 0.00 in0.0 mm
01:45 AM 61.0°F16.1°C 56.8°F13.8°C 86% Calm Calm -- 26.62 in901.5 mb - 0.00 in0.0 mm 0.00 in0.0 mm
01:50 AM 61.0°F16.1°C 55.8°F13.2°C 83% Calm Calm -- 26.62 in901.5 mb - 0.00 in0.0 mm 0.00 in0.0 mm
01:55 AM 61.0°F16.1°C 54.1°F12.3°C 78% Calm Calm -- 26.62 in901.5 mb - 0.00 in0.0 mm 0.00 in0.0 mm
02:00 AM 61.0°F16.1°C 53.7°F12.1°C 77% Calm Calm -- 26.62 in901.5 mb - 0.00 in0.0 mm 0.00 in0.0 mm
02:10 AM 60.0°F15.6°C 53.5°F11.9°C 79% Calm Calm -- 26.62 in901.5 mb - 0.00 in0.0 mm 0.00 in0.0 mm
02:15 AM 60.0°F15.6°C 53.8°F12.1°C 80% Calm Calm -- 26.62 in901.5 mb - 0.00 in0.0 mm 0.00 in0.0 mm
02:20 AM 60.0°F15.6°C 54.2°F12.3°C 81% Calm Calm -- 26.61 in901.1 mb - 0.00 in0.0 mm 0.00 in0.0 mm
02:25 AM 59.1°F15.1°C 52.9°F11.6°C 80% Calm Calm -- 26.62 in901.5 mb - 0.00 in0.0 mm 0.00 in0.0 mm
02:30 AM 59.0°F15.0°C 52.8°F11.6°C 80% Calm Calm -- 26.62 in901.5 mb - 0.00 in0.0 mm 0.00 in0.0 mm
02:35 AM 59.0°F15.0°C 52.8°F11.6°C 80% Calm Calm -- 26.61 in901.1 mb - 0.00 in0.0 mm 0.00 in0.0 mm
02:40 AM 59.0°F15.0°C 52.8°F11.6°C 80% Calm Calm -- 26.61 in901.1 mb - 0.00 in0.0 mm 0.00 in0.0 mm
02:45 AM 58.0°F14.4°C 52.2°F11.2°C 81% Calm Calm -- 26.61 in901.1 mb - 0.00 in0.0 mm 0.00 in0.0 mm
02:50 AM 57.0°F13.9°C 51.9°F11.1°C 83% Calm Calm -- 26.61 in901.1 mb - 0.00 in0.0 mm 0.00 in0.0 mm
02:55 AM 57.0°F13.9°C 51.2°F10.7°C 81% Calm Calm -- 26.60 in900.8 mb - 0.00 in0.0 mm 0.00 in0.0 mm
03:00 AM 57.0°F13.9°C 51.2°F10.7°C 81% Calm Calm -- 26.60 in900.8 mb - 0.00 in0.0 mm 0.00 in0.0 mm
03:10 AM 57.0°F13.9°C 51.6°F10.9°C 82% Calm Calm -- 26.60 in900.8 mb - 0.00 in0.0 mm 0.00 in0.0 mm
03:15 AM 57.0°F13.9°C 51.9°F11.1°C 83% Calm Calm -- 26.61 in901.1 mb - 0.00 in0.0 mm 0.00 in0.0 mm
03:20 AM 57.0°F13.9°C 51.6°F10.9°C 82% Calm Calm -- 26.60 in900.8 mb - 0.00 in0.0 mm 0.00 in0.0 mm
03:25 AM 57.0°F13.9°C 51.9°F11.1°C 83% Calm Calm -- 26.60 in900.8 mb - 0.00 in0.0 mm 0.00 in0.0 mm
03:30 AM 57.0°F13.9°C 51.9°F11.1°C 83% Calm Calm -- 26.60 in900.8 mb - 0.00 in0.0 mm 0.00 in0.0 mm
03:35 AM 57.0°F13.9°C 51.9°F11.1°C 83% Calm Calm -- 26.60 in900.8 mb - 0.00 in0.0 mm 0.00 in0.0 mm
03:40 AM 57.0°F13.9°C 51.6°F10.9°C 82% Calm Calm -- 26.61 in901.1 mb - 0.00 in0.0 mm 0.00 in0.0 mm
03:45 AM 57.0°F13.9°C 51.9°F11.1°C 83% Calm Calm -- 26.60 in900.8 mb - 0.00 in0.0 mm 0.00 in0.0 mm
03:50 AM 57.0°F13.9°C 51.6°F10.9°C 82% Calm Calm -- 26.61 in901.1 mb - 0.00 in0.0 mm 0.00 in0.0 mm
03:55 AM 57.0°F13.9°C 52.2°F11.2°C 84% Calm Calm -- 26.60 in900.8 mb - 0.00 in0.0 mm 0.00 in0.0 mm
04:00 AM 57.0°F13.9°C 51.9°F11.1°C 83% Calm Calm -- 26.61 in901.1 mb - 0.00 in0.0 mm 0.00 in0.0 mm
04:10 AM 56.0°F13.3°C 50.9°F10.5°C 83% Calm Calm -- 26.60 in900.8 mb - 0.00 in0.0 mm 0.00 in0.0 mm
04:15 AM 56.0°F13.3°C 50.9°F10.5°C 83% Calm Calm -- 26.60 in900.8 mb - 0.00 in0.0 mm 0.00 in0.0 mm
04:20 AM 56.0°F13.3°C 51.2°F10.7°C 84% Calm Calm -- 26.60 in900.8 mb - 0.00 in0.0 mm 0.00 in0.0 mm
04:25 AM 55.0°F12.8°C 50.6°F10.3°C 85% Calm Calm -- 26.61 in901.1 mb - 0.00 in0.0 mm 0.00 in0.0 mm
04:30 AM 55.0°F12.8°C 50.6°F10.3°C 85% Calm Calm -- 26.61 in901.1 mb - 0.00 in0.0 mm 0.00 in0.0 mm
04:35 AM 55.0°F12.8°C 50.6°F10.3°C 85% Calm Calm -- 26.60 in900.8 mb - 0.00 in0.0 mm 0.00 in0.0 mm
04:40 AM 55.0°F12.8°C 50.3°F10.2°C 84% Calm Calm -- 26.60 in900.8 mb - 0.00 in0.0 mm 0.00 in0.0 mm
04:45 AM 55.0°F12.8°C 49.9°F9.9°C 83% Calm Calm -- 26.61 in901.1 mb - 0.00 in0.0 mm 0.00 in0.0 mm
04:50 AM 55.0°F12.8°C 49.6°F9.8°C 82% Calm Calm -- 26.61 in901.1 mb - 0.00 in0.0 mm 0.00 in0.0 mm
04:55 AM 55.0°F12.8°C 50.3°F10.2°C 84% Calm Calm -- 26.61 in901.1 mb - 0.00 in0.0 mm 0.00 in0.0 mm
05:00 AM 55.0°F12.8°C 50.3°F10.2°C 84% Calm Calm -- 26.61 in901.1 mb - 0.00 in0.0 mm 0.00 in0.0 mm
05:10 AM 54.0°F12.2°C 49.9°F9.9°C 86% Calm Calm -- 26.61 in901.1 mb - 0.00 in0.0 mm 0.00 in0.0 mm
05:15 AM 54.0°F12.2°C 49.3°F9.6°C 84% Calm Calm -- 26.61 in901.1 mb - 0.00 in0.0 mm 0.00 in0.0 mm
05:20 AM 54.0°F12.2°C 49.0°F9.4°C 83% Calm Calm -- 26.61 in901.1 mb - 0.00 in0.0 mm 0.00 in0.0 mm
05:25 AM 54.0°F12.2°C 49.0°F9.4°C 83% Calm Calm -- 26.61 in901.1 mb - 0.00 in0.0 mm 0.00 in0.0 mm
05:30 AM 55.0°F12.8°C 49.9°F9.9°C 83% Calm Calm -- 26.61 in901.1 mb - 0.00 in0.0 mm 0.00 in0.0 mm
05:35 AM 54.0°F12.2°C 49.0°F9.4°C 83% Calm Calm -- 26.61 in901.1 mb - 0.00 in0.0 mm 0.00 in0.0 mm
05:40 AM 55.0°F12.8°C 49.3°F9.6°C 81% Calm Calm -- 26.61 in901.1 mb - 0.00 in0.0 mm 0.00 in0.0 mm
05:45 AM 55.0°F12.8°C 49.6°F9.8°C 82% Calm Calm -- 26.61 in901.1 mb - 0.00 in0.0 mm 0.00 in0.0 mm
05:50 AM 55.0°F12.8°C 49.9°F9.9°C 83% Calm Calm -- 26.61 in901.1 mb - 0.00 in0.0 mm 0.00 in0.0 mm
05:55 AM 55.0°F12.8°C 49.9°F9.9°C 83% Calm Calm -- 26.61 in901.1 mb - 0.00 in0.0 mm 0.00 in0.0 mm
06:00 AM 55.0°F12.8°C 49.9°F9.9°C 83% Calm Calm -- 26.62 in901.5 mb - 0.00 in0.0 mm 0.00 in0.0 mm
06:10 AM 55.0°F12.8°C 50.6°F10.3°C 85% Calm Calm -- 26.61 in901.1 mb - 0.00 in0.0 mm 0.00 in0.0 mm
06:15 AM 55.0°F12.8°C 50.9°F10.5°C 86% Calm Calm -- 26.61 in901.1 mb - 0.00 in0.0 mm 0.00 in0.0 mm
06:20 AM 57.0°F13.9°C 52.9°F11.6°C 86% Calm Calm -- 26.61 in901.1 mb - 0.01 in0.3 mm 0.01 in0.3 mm
06:25 AM 61.0°F16.1°C 56.8°F13.8°C 86% Calm Calm -- 26.61 in901.1 mb - 0.01 in0.3 mm 0.01 in0.3 mm
06:30 AM 55.0°F12.8°C 50.6°F10.3°C 85% Calm Calm -- 26.61 in901.1 mb - 0.01 in0.3 mm 0.01 in0.3 mm
06:35 AM 55.0°F12.8°C 50.3°F10.2°C 84% Calm Calm -- 26.61 in901.1 mb - 0.01 in0.3 mm 0.01 in0.3 mm
06:40 AM 55.0°F12.8°C 50.6°F10.3°C 85% Calm Calm -- 26.62 in901.5 mb - 0.01 in0.3 mm 0.01 in0.3 mm
06:45 AM 55.0°F12.8°C 50.6°F10.3°C 85% Calm Calm -- 26.61 in901.1 mb - 0.01 in0.3 mm 0.01 in0.3 mm
06:50 AM 55.0°F12.8°C 50.6°F10.3°C 85% Calm Calm -- 26.61 in901.1 mb - 0.01 in0.3 mm 0.01 in0.3 mm
06:55 AM 55.0°F12.8°C 50.9°F10.5°C 86% Calm Calm -- 26.61 in901.1 mb - 0.01 in0.3 mm 0.01 in0.3 mm
07:00 AM 55.0°F12.8°C 50.9°F10.5°C 86% Calm Calm -- 26.61 in901.1 mb - 0.01 in0.3 mm 0.01 in0.3 mm
07:10 AM 55.0°F12.8°C 50.3°F10.2°C 84% Calm Calm -- 26.61 in901.1 mb - 0.01 in0.3 mm 0.01 in0.3 mm
07:15 AM 55.1°F12.8°C 50.4°F10.2°C 84% Calm Calm -- 26.61 in901.1 mb - 0.01 in0.3 mm 0.01 in0.3 mm
07:20 AM 56.0°F13.3°C 51.9°F11.1°C 86% Calm Calm -- 26.60 in900.8 mb - 0.01 in0.3 mm 0.01 in0.3 mm
07:25 AM 56.0°F13.3°C 50.6°F10.3°C 82% Calm Calm -- 26.60 in900.8 mb - 0.00 in0.0 mm 0.01 in0.3 mm
07:30 AM 56.0°F13.3°C 50.9°F10.5°C 83% Calm Calm -- 26.61 in901.1 mb - 0.00 in0.0 mm 0.01 in0.3 mm
07:35 AM 59.0°F15.0°C 51.4°F10.8°C 76% Calm Calm -- 26.60 in900.8 mb - 0.00 in0.0 mm 0.01 in0.3 mm
07:40 AM 60.9°F16.1°C 52.2°F11.2°C 73% Calm Calm -- 26.59 in900.4 mb - 0.00 in0.0 mm 0.01 in0.3 mm
07:45 AM 63.0°F17.2°C 53.1°F11.7°C 70% Calm Calm -- 26.59 in900.4 mb - 0.00 in0.0 mm 0.01 in0.3 mm
07:50 AM 67.0°F19.4°C 53.1°F11.7°C 61% Calm Calm -- 26.60 in900.8 mb - 0.00 in0.0 mm 0.01 in0.3 mm
07:55 AM 69.0°F20.6°C 54.1°F12.3°C 59% Calm Calm -- 26.60 in900.8 mb - 0.00 in0.0 mm 0.01 in0.3 mm
08:00 AM 72.0°F22.2°C 54.9°F12.7°C 55% Calm Calm -- 26.59 in900.4 mb - 0.00 in0.0 mm 0.01 in0.3 mm
08:10 AM 74.0°F23.3°C 55.3°F12.9°C 52% Calm Calm -- 26.58 in900.1 mb - 0.00 in0.0 mm 0.01 in0.3 mm
08:15 AM 76.0°F24.4°C 54.3°F12.4°C 47% Calm Calm -- 26.59 in900.4 mb - 0.00 in0.0 mm 0.01 in0.3 mm
08:20 AM 77.0°F25.0°C 55.2°F12.9°C 47% Calm Calm -- 26.58 in900.1 mb - 0.00 in0.0 mm 0.01 in0.3 mm
08:25 AM 78.0°F25.6°C 54.3°F12.4°C 44% Calm Calm -- 26.59 in900.4 mb - 0.00 in0.0 mm 0.01 in0.3 mm
08:30 AM 78.8°F26.0°C 56.3°F13.5°C 46% Calm Calm -- 26.57 in899.8 mb - 0.00 in0.0 mm 0.01 in0.3 mm
08:35 AM 79.0°F26.1°C 56.5°F13.6°C 46% Calm Calm -- 26.57 in899.8 mb - 0.00 in0.0 mm 0.01 in0.3 mm
08:40 AM 78.0°F25.6°C 56.7°F13.7°C 48% Calm Calm 1.2 mph1.9 kmh 26.58 in900.1 mb - 0.00 in0.0 mm 0.01 in0.3 mm
08:45 AM 78.0°F25.6°C 54.9°F12.7°C 45% Calm Calm -- 26.58 in900.1 mb - 0.00 in0.0 mm 0.01 in0.3 mm
08:50 AM 79.0°F26.1°C 53.3°F11.8°C 41% Calm Calm -- 26.58 in900.1 mb - 0.00 in0.0 mm 0.01 in0.3 mm
08:55 AM 79.0°F26.1°C 55.2°F12.9°C 44% Calm Calm -- 26.58 in900.1 mb - 0.00 in0.0 mm 0.01 in0.3 mm
09:00 AM 78.0°F25.6°C 54.3°F12.4°C 44% Calm Calm -- 26.58 in900.1 mb - 0.00 in0.0 mm 0.01 in0.3 mm
09:10 AM 73.0°F22.8°C 51.0°F10.6°C 46% Calm Calm -- 26.57 in899.8 mb - 0.00 in0.0 mm 0.01 in0.3 mm
09:15 AM 75.0°F23.9°C 51.6°F10.9°C 44% Calm Calm -- 26.57 in899.8 mb - 0.00 in0.0 mm 0.01 in0.3 mm
09:20 AM 74.0°F23.3°C 50.1°F10.1°C 43% Calm Calm -- 26.57 in899.8 mb - 0.00 in0.0 mm 0.01 in0.3 mm
09:25 AM 74.0°F23.3°C 50.1°F10.1°C 43% Calm Calm -- 26.57 in899.8 mb - 0.00 in0.0 mm 0.01 in0.3 mm
09:30 AM 74.0°F23.3°C 51.3°F10.7°C 45% Calm Calm -- 26.56 in899.4 mb - 0.00 in0.0 mm 0.01 in0.3 mm
09:35 AM 76.0°F24.4°C 51.9°F11.1°C 43% Calm Calm -- 26.56 in899.4 mb - 0.00 in0.0 mm 0.01 in0.3 mm
09:40 AM 76.0°F24.4°C 53.7°F12.1°C 46% 2.3 mph W3.7 kmh W 2.3 mph3.7 kmh 26.56 in899.4 mb - 0.00 in0.0 mm 0.01 in0.3 mm
09:45 AM 73.0°F22.8°C 51.6°F10.9°C 47% 1.2 mph WSW1.9 kmh WSW 1.2 mph1.9 kmh 26.56 in899.4 mb - 0.00 in0.0 mm 0.01 in0.3 mm
09:50 AM 73.1°F22.8°C 51.7°F10.9°C 47% 1.2 mph WSW1.9 kmh WSW 1.2 mph1.9 kmh 26.56 in899.4 mb - 0.00 in0.0 mm 0.01 in0.3 mm
09:55 AM 74.0°F23.3°C 52.5°F11.4°C 47% 1.2 mph S1.9 kmh S 1.2 mph1.9 kmh 26.56 in899.4 mb - 0.00 in0.0 mm 0.01 in0.3 mm
10:00 AM 75.0°F23.9°C 53.4°F11.9°C 47% Calm Calm 1.2 mph1.9 kmh 26.56 in899.4 mb - 0.00 in0.0 mm 0.01 in0.3 mm
10:10 AM 75.0°F23.9°C 52.8°F11.6°C 46% 2.3 mph WSW3.7 kmh WSW 2.3 mph3.7 kmh 26.56 in899.4 mb - 0.00 in0.0 mm 0.01 in0.3 mm
10:15 AM 75.0°F23.9°C 52.8°F11.6°C 46% 1.2 mph WSW1.9 kmh WSW 2.3 mph3.7 kmh 26.56 in899.4 mb - 0.00 in0.0 mm 0.01 in0.3 mm
10:20 AM 75.0°F23.9°C 52.8°F11.6°C 46% Calm Calm 1.2 mph1.9 kmh 26.56 in899.4 mb - 0.00 in0.0 mm 0.01 in0.3 mm
10:25 AM 77.0°F25.0°C 54.6°F12.6°C 46% Calm Calm -- 26.56 in899.4 mb - 0.00 in0.0 mm 0.01 in0.3 mm
10:30 AM 75.0°F23.9°C 52.2°F11.2°C 45% Calm Calm -- 26.56 in899.4 mb - 0.00 in0.0 mm 0.01 in0.3 mm
10:35 AM 76.0°F24.4°C 53.7°F12.1°C 46% 1.2 mph S1.9 kmh S 1.2 mph1.9 kmh 26.55 in899.1 mb - 0.00 in0.0 mm 0.01 in0.3 mm
10:40 AM 75.7°F24.3°C 54.0°F12.2°C 47% 1.2 mph S1.9 kmh S 1.2 mph1.9 kmh 26.55 in899.1 mb - 0.00 in0.0 mm 0.01 in0.3 mm
10:45 AM 75.0°F23.9°C 54.5°F12.5°C 49% Calm Calm 1.2 mph1.9 kmh 26.56 in899.4 mb - 0.00 in0.0 mm 0.01 in0.3 mm
10:50 AM 76.0°F24.4°C 54.9°F12.7°C 48% 1.2 mph W1.9 kmh W 1.2 mph1.9 kmh 26.55 in899.1 mb - 0.00 in0.0 mm 0.01 in0.3 mm
10:55 AM 77.0°F25.0°C 54.0°F12.2°C 45% 1.2 mph NNE1.9 kmh NNE 1.2 mph1.9 kmh 26.55 in899.1 mb - 0.00 in0.0 mm 0.01 in0.3 mm
11:00 AM 76.0°F24.4°C 54.9°F12.7°C 48% 1.2 mph W1.9 kmh W 2.3 mph3.7 kmh 26.55 in899.1 mb - 0.00 in0.0 mm 0.01 in0.3 mm
11:10 AM 79.0°F26.1°C 55.8°F13.2°C 45% 2.3 mph SW3.7 kmh SW 3.5 mph5.6 kmh 26.55 in899.1 mb - 0.00 in0.0 mm 0.01 in0.3 mm
11:15 AM 79.0°F26.1°C 54.6°F12.6°C 43% Calm Calm 1.2 mph1.9 kmh 26.55 in899.1 mb - 0.00 in0.0 mm 0.01 in0.3 mm
11:20 AM 79.0°F26.1°C 57.0°F13.9°C 47% 2.3 mph WSW3.7 kmh WSW 3.5 mph5.6 kmh 26.54 in898.7 mb - 0.00 in0.0 mm 0.01 in0.3 mm
11:25 AM 79.0°F26.1°C 55.8°F13.2°C 45% 1.2 mph ENE1.9 kmh ENE 2.3 mph3.7 kmh 26.55 in899.1 mb - 0.00 in0.0 mm 0.01 in0.3 mm
11:30 AM 79.0°F26.1°C 55.8°F13.2°C 45% 1.2 mph NNE1.9 kmh NNE 2.3 mph3.7 kmh 26.54 in898.7 mb - 0.00 in0.0 mm 0.01 in0.3 mm
11:35 AM 79.0°F26.1°C 55.8°F13.2°C 45% 1.2 mph N1.9 kmh N 2.3 mph3.7 kmh 26.54 in898.7 mb - 0.00 in0.0 mm 0.01 in0.3 mm
11:40 AM 80.0°F26.7°C 56.7°F13.7°C 45% 1.2 mph E1.9 kmh E 2.3 mph3.7 kmh 26.54 in898.7 mb - 0.00 in0.0 mm 0.01 in0.3 mm
11:45 AM 80.0°F26.7°C 56.1°F13.4°C 44% 2.3 mph WSW3.7 kmh WSW 6.9 mph11.1 kmh 26.54 in898.7 mb - 0.00 in0.0 mm 0.01 in0.3 mm
11:50 AM 82.0°F27.8°C 58.6°F14.8°C 45% 1.2 mph W1.9 kmh W 2.3 mph3.7 kmh 26.54 in898.7 mb - 0.00 in0.0 mm 0.01 in0.3 mm
11:55 AM 82.0°F27.8°C 57.9°F14.4°C 44% 1.2 mph WSW1.9 kmh WSW 2.3 mph3.7 kmh 26.54 in898.7 mb - 0.00 in0.0 mm 0.01 in0.3 mm
12:00 PM 81.0°F27.2°C 57.0°F13.9°C 44% 1.2 mph WSW1.9 kmh WSW 2.3 mph3.7 kmh 26.54 in898.7 mb - 0.00 in0.0 mm 0.01 in0.3 mm
12:10 PM 81.0°F27.2°C 57.0°F13.9°C 44% Calm Calm -- 26.54 in898.7 mb - 0.00 in0.0 mm 0.01 in0.3 mm
12:15 PM 81.0°F27.2°C 57.7°F14.3°C 45% 2.3 mph SW3.7 kmh SW 2.3 mph3.7 kmh 26.54 in898.7 mb - 0.00 in0.0 mm 0.01 in0.3 mm
12:20 PM 80.0°F26.7°C 58.0°F14.4°C 47% 2.3 mph NE3.7 kmh NE 3.5 mph5.6 kmh 26.54 in898.7 mb - 0.00 in0.0 mm 0.01 in0.3 mm
12:25 PM 80.2°F26.8°C 57.5°F14.2°C 46% 1.2 mph NE1.9 kmh NE 3.5 mph5.6 kmh 26.54 in898.7 mb - 0.00 in0.0 mm 0.01 in0.3 mm
12:30 PM 81.0°F27.2°C 55.7°F13.2°C 42% Calm Calm 1.2 mph1.9 kmh 26.53 in898.4 mb - 0.00 in0.0 mm 0.01 in0.3 mm
12:35 PM 83.0°F28.3°C 56.2°F13.4°C 40% 1.2 mph ESE1.9 kmh ESE 1.2 mph1.9 kmh 26.53 in898.4 mb - 0.00 in0.0 mm 0.01 in0.3 mm
12:40 PM 82.0°F27.8°C 56.0°F13.3°C 41% 1.2 mph N1.9 kmh N 1.2 mph1.9 kmh 26.54 in898.7 mb - 0.00 in0.0 mm 0.01 in0.3 mm
12:45 PM 81.0°F27.2°C 55.1°F12.8°C 41% Calm Calm 1.2 mph1.9 kmh 26.53 in898.4 mb - 0.00 in0.0 mm 0.01 in0.3 mm
12:50 PM 80.6°F27.0°C 56.0°F13.3°C 43% Calm Calm 1.2 mph1.9 kmh 26.53 in898.4 mb - 0.00 in0.0 mm 0.01 in0.3 mm
12:55 PM 80.0°F26.7°C 56.7°F13.7°C 45% 1.2 mph SE1.9 kmh SE 1.2 mph1.9 kmh 26.53 in898.4 mb - 0.00 in0.0 mm 0.01 in0.3 mm
01:00 PM 78.0°F25.6°C 56.7°F13.7°C 48% 1.2 mph WSW1.9 kmh WSW 2.3 mph3.7 kmh 26.52 in898.1 mb - 0.00 in0.0 mm 0.01 in0.3 mm
01:10 PM 77.0°F25.0°C 55.8°F13.2°C 48% Calm Calm -- 26.53 in898.4 mb - 0.00 in0.0 mm 0.01 in0.3 mm
01:15 PM 79.7°F26.5°C 56.4°F13.6°C 45% 1.2 mph NW1.9 kmh NW 1.2 mph1.9 kmh 26.53 in898.4 mb - 0.00 in0.0 mm 0.01 in0.3 mm
01:20 PM 81.0°F27.2°C 57.0°F13.9°C 44% 1.2 mph WNW1.9 kmh WNW 1.2 mph1.9 kmh 26.53 in898.4 mb - 0.00 in0.0 mm 0.01 in0.3 mm
01:25 PM 79.0°F26.1°C 56.5°F13.6°C 46% 1.2 mph N1.9 kmh N 1.2 mph1.9 kmh 26.52 in898.1 mb - 0.00 in0.0 mm 0.01 in0.3 mm
01:30 PM 81.0°F27.2°C 57.7°F14.3°C 45% Calm Calm 1.2 mph1.9 kmh 26.52 in898.1 mb - 0.00 in0.0 mm 0.01 in0.3 mm
01:35 PM 77.0°F25.0°C 55.2°F12.9°C 47% Calm Calm 1.2 mph1.9 kmh 26.52 in898.1 mb - 0.00 in0.0 mm 0.01 in0.3 mm
01:40 PM 76.1°F24.5°C 55.0°F12.8°C 48% 1.2 mph ESE1.9 kmh ESE 2.3 mph3.7 kmh 26.52 in898.1 mb - 0.00 in0.0 mm 0.01 in0.3 mm
01:45 PM 76.0°F24.4°C 54.9°F12.7°C 48% 1.2 mph ESE1.9 kmh ESE 2.3 mph3.7 kmh 26.52 in898.1 mb - 0.00 in0.0 mm 0.01 in0.3 mm
01:50 PM 75.0°F23.9°C 56.2°F13.4°C 52% Calm Calm -- 26.52 in898.1 mb - 0.00 in0.0 mm 0.01 in0.3 mm
01:55 PM 75.0°F23.9°C 56.2°F13.4°C 52% 1.2 mph NE1.9 kmh NE 2.3 mph3.7 kmh 26.52 in898.1 mb - 0.00 in0.0 mm 0.01 in0.3 mm
02:00 PM 76.0°F24.4°C 55.5°F13.1°C 49% Calm Calm 1.2 mph1.9 kmh 26.52 in898.1 mb - 0.00 in0.0 mm 0.01 in0.3 mm
02:10 PM 76.9°F24.9°C 55.8°F13.2°C 48% 2.3 mph NE3.7 kmh NE 3.5 mph5.6 kmh 26.52 in898.1 mb - 0.00 in0.0 mm 0.01 in0.3 mm
02:15 PM 76.0°F24.4°C 56.0°F13.3°C 50% Calm Calm -- 26.52 in898.1 mb - 0.00 in0.0 mm 0.01 in0.3 mm
02:20 PM 76.0°F24.4°C 56.6°F13.7°C 51% 1.2 mph WSW1.9 kmh WSW 2.3 mph3.7 kmh 26.51 in897.7 mb - 0.00 in0.0 mm 0.01 in0.3 mm
02:25 PM 75.0°F23.9°C 56.2°F13.4°C 52% Calm Calm -- 26.51 in897.7 mb - 0.00 in0.0 mm 0.01 in0.3 mm
02:30 PM 75.0°F23.9°C 55.6°F13.1°C 51% Calm Calm -- 26.51 in897.7 mb - 0.00 in0.0 mm 0.01 in0.3 mm
02:35 PM 75.5°F24.2°C 55.6°F13.1°C 50% Calm Calm -- 26.51 in897.7 mb - 0.00 in0.0 mm 0.01 in0.3 mm
02:40 PM 77.0°F25.0°C 55.2°F12.9°C 47% Calm Calm -- 26.51 in897.7 mb - 0.00 in0.0 mm 0.01 in0.3 mm
02:45 PM 78.0°F25.6°C 56.1°F13.4°C 47% Calm Calm -- 26.51 in897.7 mb - 0.00 in0.0 mm 0.01 in0.3 mm
02:50 PM 77.0°F25.0°C 56.4°F13.6°C 49% Calm Calm 1.2 mph1.9 kmh 26.52 in898.1 mb - 0.00 in0.0 mm 0.01 in0.3 mm
02:55 PM 75.0°F23.9°C 55.6°F13.1°C 51% Calm Calm -- 26.51 in897.7 mb - 0.00 in0.0 mm 0.01 in0.3 mm
03:00 PM 75.0°F23.9°C 55.6°F13.1°C 51% Calm Calm -- 26.51 in897.7 mb - 0.00 in0.0 mm 0.01 in0.3 mm
03:10 PM 75.0°F23.9°C 57.2°F14.0°C 54% Calm Calm -- 26.50 in897.4 mb - 0.00 in0.0 mm 0.01 in0.3 mm
03:15 PM 74.0°F23.3°C 59.7°F15.4°C 61% Calm Calm -- 26.51 in897.7 mb - 0.00 in0.0 mm 0.01 in0.3 mm
03:20 PM 74.0°F23.3°C 59.7°F15.4°C 61% Calm Calm -- 26.50 in897.4 mb - 0.00 in0.0 mm 0.01 in0.3 mm
03:25 PM 73.3°F22.9°C 57.6°F14.2°C 58% Calm Calm -- 26.49 in897.1 mb - 0.00 in0.0 mm 0.01 in0.3 mm
03:30 PM 73.0°F22.8°C 56.9°F13.8°C 57% Calm Calm -- 26.49 in897.1 mb - 0.00 in0.0 mm 0.01 in0.3 mm
03:35 PM 74.0°F23.3°C 56.3°F13.5°C 54% Calm Calm -- 26.49 in897.1 mb - 0.00 in0.0 mm 0.01 in0.3 mm
03:40 PM 74.0°F23.3°C 57.3°F14.1°C 56% 1.2 mph SW1.9 kmh SW 1.2 mph1.9 kmh 26.51 in897.7 mb - 0.00 in0.0 mm 0.01 in0.3 mm
03:45 PM 74.0°F23.3°C 62.8°F17.1°C 68% Calm Calm -- 26.50 in897.4 mb - 0.00 in0.0 mm 0.01 in0.3 mm
03:50 PM 71.0°F21.7°C 61.1°F16.2°C 71% Calm Calm -- 26.50 in897.4 mb - 0.01 in0.3 mm 0.02 in0.5 mm
03:55 PM 70.9°F21.6°C 65.8°F18.8°C 84% Calm Calm -- 26.50 in897.4 mb - 0.01 in0.3 mm 0.02 in0.5 mm
04:00 PM 70.0°F21.1°C 64.6°F18.1°C 83% Calm Calm -- 26.50 in897.4 mb - 0.01 in0.3 mm 0.02 in0.5 mm
04:10 PM 69.0°F20.6°C 64.6°F18.1°C 86% Calm Calm 1.2 mph1.9 kmh 26.50 in897.4 mb - 0.01 in0.3 mm 0.02 in0.5 mm
04:15 PM 68.0°F20.0°C 62.3°F16.8°C 82% Calm Calm -- 26.51 in897.7 mb - 0.01 in0.3 mm 0.02 in0.5 mm
04:20 PM 68.0°F20.0°C 62.3°F16.8°C 82% Calm Calm -- 26.50 in897.4 mb - 0.01 in0.3 mm 0.02 in0.5 mm
04:25 PM 68.0°F20.0°C 61.9°F16.6°C 81% Calm Calm -- 26.50 in897.4 mb - 0.01 in0.3 mm 0.02 in0.5 mm
04:30 PM 68.0°F20.0°C 62.3°F16.8°C 82% Calm Calm -- 26.50 in897.4 mb - 0.01 in0.3 mm 0.02 in0.5 mm
04:35 PM 67.0°F19.4°C 63.6°F17.6°C 89% Calm Calm -- 26.50 in897.4 mb - 0.02 in0.5 mm 0.03 in0.8 mm
04:40 PM 66.0°F18.9°C 61.4°F16.3°C 85% Calm Calm 1.2 mph1.9 kmh 26.51 in897.7 mb - 0.03 in0.8 mm 0.04 in1.0 mm
04:45 PM 65.2°F18.4°C 62.8°F17.1°C 92% Calm Calm 1.2 mph1.9 kmh 26.52 in898.1 mb - 0.13 in3.3 mm 0.14 in3.6 mm
04:50 PM 65.0°F18.3°C 63.2°F17.3°C 94% Calm Calm 1.2 mph1.9 kmh 26.52 in898.1 mb - 0.12 in3.0 mm 0.14 in3.6 mm
04:55 PM 81.0°F27.2°C 57.7°F14.3°C 45% Calm Calm 1.2 mph1.9 kmh 26.52 in898.1 mb - 0.12 in3.0 mm 0.14 in3.6 mm
05:00 PM 63.0°F17.2°C 59.1°F15.1°C 87% 1.2 mph ENE1.9 kmh ENE 1.2 mph1.9 kmh 26.52 in898.1 mb - 0.27 in6.9 mm 0.29 in7.4 mm
05:10 PM 61.6°F16.4°C 59.3°F15.2°C 92% Calm Calm -- 26.52 in898.1 mb - 0.28 in7.1 mm 0.30 in7.6 mm
05:15 PM 61.0°F16.1°C 59.6°F15.3°C 95% Calm Calm -- 26.52 in898.1 mb - 0.28 in7.1 mm 0.30 in7.6 mm
05:20 PM 61.0°F16.1°C 59.6°F15.3°C 95% Calm Calm -- 26.52 in898.1 mb - 0.28 in7.1 mm 0.30 in7.6 mm
05:25 PM 60.0°F15.6°C 58.6°F14.8°C 95% Calm Calm -- 26.52 in898.1 mb - 0.29 in7.4 mm 0.31 in7.9 mm
05:30 PM 60.0°F15.6°C 58.9°F14.9°C 96% Calm Calm -- 26.52 in898.1 mb - 0.30 in7.6 mm 0.32 in8.1 mm
05:35 PM 60.0°F15.6°C 59.1°F15.1°C 97% Calm Calm -- 26.52 in898.1 mb - 0.29 in7.4 mm 0.32 in8.1 mm
05:40 PM 60.0°F15.6°C 58.9°F14.9°C 96% Calm Calm -- 26.53 in898.4 mb - 0.28 in7.1 mm 0.32 in8.1 mm
05:45 PM 59.0°F15.0°C 57.6°F14.2°C 95% Calm Calm -- 26.53 in898.4 mb - 0.30 in7.6 mm 0.34 in8.6 mm
05:50 PM 59.0°F15.0°C 56.1°F13.4°C 90% Calm Calm -- 26.53 in898.4 mb - 0.21 in5.3 mm 0.35 in8.9 mm
05:55 PM 59.0°F15.0°C 56.1°F13.4°C 90% Calm Calm -- 26.53 in898.4 mb - 0.21 in5.3 mm 0.35 in8.9 mm
06:00 PM 58.0°F14.4°C 56.3°F13.5°C 94% Calm Calm 1.2 mph1.9 kmh 26.54 in898.7 mb - 0.08 in2.0 mm 0.37 in9.4 mm
06:10 PM 58.0°F14.4°C 56.6°F13.7°C 95% Calm Calm 1.2 mph1.9 kmh 26.55 in899.1 mb - 0.11 in2.8 mm 0.40 in10.2 mm
06:15 PM 58.0°F14.4°C 56.6°F13.7°C 95% Calm Calm 1.2 mph1.9 kmh 26.55 in899.1 mb - 0.10 in2.5 mm 0.40 in10.2 mm
06:20 PM 74.0°F23.3°C 57.3°F14.1°C 56% 1.2 mph SW1.9 kmh SW 1.2 mph1.9 kmh 26.51 in897.7 mb - 0.10 in2.5 mm 0.40 in10.2 mm
06:25 PM 68.0°F20.0°C 62.3°F16.8°C 82% Calm Calm -- 26.51 in897.7 mb - 0.10 in2.5 mm 0.41 in10.4 mm
06:30 PM 58.0°F14.4°C 54.8°F12.7°C 89% Calm Calm -- 26.55 in899.1 mb - 0.35 in8.9 mm 0.66 in16.8 mm
06:35 PM 58.0°F14.4°C 57.4°F14.1°C 98% Calm Calm -- 26.55 in899.1 mb - 0.34 in8.6 mm 0.66 in16.8 mm
06:40 PM 58.0°F14.4°C 57.4°F14.1°C 98% Calm Calm -- 26.55 in899.1 mb - 0.34 in8.6 mm 0.66 in16.8 mm
06:45 PM 58.0°F14.4°C 56.9°F13.8°C 96% Calm Calm -- 26.55 in899.1 mb - 0.32 in8.1 mm 0.66 in16.8 mm
06:50 PM 58.0°F14.4°C 57.2°F14.0°C 97% Calm Calm -- 26.55 in899.1 mb - 0.31 in7.9 mm 0.66 in16.8 mm
06:55 PM 58.0°F14.4°C 57.2°F14.0°C 97% Calm Calm -- 26.55 in899.1 mb - 0.31 in7.9 mm 0.66 in16.8 mm
07:00 PM 58.0°F14.4°C 57.4°F14.1°C 98% Calm Calm -- 26.55 in899.1 mb - 0.30 in7.6 mm 0.67 in17.0 mm
07:10 PM 58.0°F14.4°C 57.4°F14.1°C 98% Calm Calm -- 26.55 in899.1 mb - 0.28 in7.1 mm 0.68 in17.3 mm
07:15 PM 58.0°F14.4°C 57.4°F14.1°C 98% Calm Calm -- 26.55 in899.1 mb - 0.30 in7.6 mm 0.70 in17.8 mm
07:20 PM 58.0°F14.4°C 57.4°F14.1°C 98% Calm Calm -- 26.55 in899.1 mb - 0.31 in7.9 mm 0.71 in18.0 mm
07:25 PM 58.0°F14.4°C 56.6°F13.7°C 95% Calm Calm 1.2 mph1.9 kmh 26.55 in899.1 mb - 0.30 in7.6 mm 0.71 in18.0 mm
07:30 PM 57.7°F14.3°C 56.5°F13.6°C 96% Calm Calm 1.2 mph1.9 kmh 26.55 in899.1 mb - 0.10 in2.5 mm 0.76 in19.3 mm
07:35 PM 57.0°F13.9°C 56.4°F13.6°C 98% Calm Calm -- 26.55 in899.1 mb - 0.10 in2.5 mm 0.76 in19.3 mm
07:40 PM 57.0°F13.9°C 56.4°F13.6°C 98% Calm Calm -- 26.55 in899.1 mb - 0.10 in2.5 mm 0.76 in19.3 mm
07:45 PM 57.0°F13.9°C 56.4°F13.6°C 98% Calm Calm -- 26.55 in899.1 mb - 0.10 in2.5 mm 0.76 in19.3 mm
07:50 PM 56.0°F13.3°C 55.4°F13.0°C 98% Calm Calm -- 26.55 in899.1 mb - 0.10 in2.5 mm 0.76 in19.3 mm
07:55 PM 56.0°F13.3°C 55.4°F13.0°C 98% Calm Calm -- 26.55 in899.1 mb - 0.10 in2.5 mm 0.76 in19.3 mm
08:00 PM 56.0°F13.3°C 55.4°F13.0°C 98% Calm Calm -- 26.55 in899.1 mb - 0.09 in2.3 mm 0.76 in19.3 mm
08:10 PM 56.0°F13.3°C 55.4°F13.0°C 98% Calm Calm -- 26.55 in899.1 mb - 0.08 in2.0 mm 0.76 in19.3 mm
08:15 PM 56.0°F13.3°C 55.4°F13.0°C 98% Calm Calm -- 26.55 in899.1 mb - 0.06 in1.5 mm 0.76 in19.3 mm
08:20 PM 56.0°F13.3°C 55.4°F13.0°C 98% Calm Calm -- 26.55 in899.1 mb - 0.05 in1.3 mm 0.76 in19.3 mm
08:25 PM 56.0°F13.3°C 55.4°F13.0°C 98% Calm Calm -- 26.55 in899.1 mb - 0.05 in1.3 mm 0.76 in19.3 mm
08:30 PM 56.0°F13.3°C 55.7°F13.2°C 99% Calm Calm -- 26.56 in899.4 mb - 0.05 in1.3 mm 0.76 in19.3 mm
08:35 PM 56.0°F13.3°C 55.7°F13.2°C 99% Calm Calm -- 26.55 in899.1 mb - 0.00 in0.0 mm 0.76 in19.3 mm
08:40 PM 55.0°F12.8°C 54.7°F12.6°C 99% Calm Calm -- 26.55 in899.1 mb - 0.00 in0.0 mm 0.76 in19.3 mm
08:45 PM 55.0°F12.8°C 54.7°F12.6°C 99% Calm Calm -- 26.55 in899.1 mb - 0.00 in0.0 mm 0.76 in19.3 mm
08:50 PM 55.0°F12.8°C 54.7°F12.6°C 99% Calm Calm -- 26.55 in899.1 mb - 0.00 in0.0 mm 0.76 in19.3 mm
08:55 PM 55.0°F12.8°C 54.7°F12.6°C 99% Calm Calm -- 26.56 in899.4 mb - 0.00 in0.0 mm 0.76 in19.3 mm
09:00 PM 55.0°F12.8°C 54.7°F12.6°C 99% Calm Calm -- 26.56 in899.4 mb - 0.00 in0.0 mm 0.76 in19.3 mm
09:10 PM 55.0°F12.8°C 54.7°F12.6°C 99% Calm Calm -- 26.57 in899.8 mb - 0.00 in0.0 mm 0.76 in19.3 mm
09:15 PM 55.0°F12.8°C 54.7°F12.6°C 99% Calm Calm -- 26.58 in900.1 mb - 0.00 in0.0 mm 0.76 in19.3 mm
09:20 PM 55.0°F12.8°C 54.7°F12.6°C 99% Calm Calm -- 26.57 in899.8 mb - 0.00 in0.0 mm 0.76 in19.3 mm
09:25 PM 55.0°F12.8°C 54.7°F12.6°C 99% Calm Calm -- 26.57 in899.8 mb - 0.00 in0.0 mm 0.76 in19.3 mm
09:30 PM 69.0°F20.6°C 62.9°F17.2°C 81% Calm Calm -- 26.50 in897.4 mb - 0.00 in0.0 mm 0.76 in19.3 mm
09:35 PM 55.0°F12.8°C 54.7°F12.6°C 99% Calm Calm -- 26.57 in899.8 mb - 0.30 in7.6 mm 1.06 in26.9 mm
09:40 PM 55.0°F12.8°C 54.7°F12.6°C 99% Calm Calm -- 26.57 in899.8 mb - 0.30 in7.6 mm 1.06 in26.9 mm
09:45 PM 55.0°F12.8°C 54.7°F12.6°C 99% Calm Calm -- 26.58 in900.1 mb - 0.30 in7.6 mm 1.06 in26.9 mm
09:50 PM 55.0°F12.8°C 54.7°F12.6°C 99% Calm Calm -- 26.57 in899.8 mb - 0.30 in7.6 mm 1.06 in26.9 mm
09:55 PM 55.0°F12.8°C 54.7°F12.6°C 99% Calm Calm -- 26.57 in899.8 mb - 0.30 in7.6 mm 1.06 in26.9 mm
10:00 PM 55.0°F12.8°C 54.7°F12.6°C 99% Calm Calm -- 26.57 in899.8 mb - 0.30 in7.6 mm 1.06 in26.9 mm
10:10 PM 55.0°F12.8°C 54.7°F12.6°C 99% Calm Calm -- 26.57 in899.8 mb - 0.61 in15.5 mm 1.37 in34.8 mm
10:15 PM 55.0°F12.8°C 54.7°F12.6°C 99% Calm Calm -- 26.57 in899.8 mb - 0.61 in15.5 mm 1.37 in34.8 mm
10:20 PM 55.0°F12.8°C 54.7°F12.6°C 99% Calm Calm -- 26.57 in899.8 mb - 0.61 in15.5 mm 1.37 in34.8 mm
10:25 PM 55.0°F12.8°C 54.7°F12.6°C 99% Calm Calm -- 26.57 in899.8 mb - 0.61 in15.5 mm 1.37 in34.8 mm
10:30 PM 55.0°F12.8°C 54.7°F12.6°C 99% Calm Calm -- 26.57 in899.8 mb - 0.61 in15.5 mm 1.37 in34.8 mm
10:35 PM 56.0°F13.3°C 55.4°F13.0°C 98% Calm Calm -- 26.55 in899.1 mb - 0.31 in7.9 mm 1.37 in34.8 mm
10:40 PM 55.0°F12.8°C 54.7°F12.6°C 99% Calm Calm -- 26.57 in899.8 mb - 0.31 in7.9 mm 1.37 in34.8 mm
10:45 PM 55.0°F12.8°C 54.7°F12.6°C 99% Calm Calm -- 26.58 in900.1 mb - 0.31 in7.9 mm 1.37 in34.8 mm
10:50 PM 55.0°F12.8°C 54.7°F12.6°C 99% Calm Calm -- 26.58 in900.1 mb - 0.31 in7.9 mm 1.37 in34.8 mm
10:55 PM 55.0°F12.8°C 54.7°F12.6°C 99% Calm Calm -- 26.58 in900.1 mb - 0.31 in7.9 mm 1.37 in34.8 mm
11:00 PM 55.0°F12.8°C 54.7°F12.6°C 99% Calm Calm -- 26.57 in899.8 mb - 0.31 in7.9 mm 15.25 in387.4 mm
11:10 PM 55.0°F12.8°C 54.7°F12.6°C 99% Calm Calm -- 26.57 in899.8 mb - 0.01 in0.3 mm 0.01 in0.3 mm
11:15 PM 55.0°F12.8°C 54.7°F12.6°C 99% Calm Calm -- 26.57 in899.8 mb - 0.01 in0.3 mm 0.01 in0.3 mm
11:20 PM 55.0°F12.8°C 54.4°F12.4°C 98% Calm Calm -- 26.57 in899.8 mb - 0.01 in0.3 mm 0.01 in0.3 mm
11:25 PM 55.0°F12.8°C 54.4°F12.4°C 98% Calm Calm -- 26.57 in899.8 mb - 0.01 in0.3 mm 0.01 in0.3 mm
11:30 PM 55.0°F12.8°C 54.4°F12.4°C 98% Calm Calm -- 26.58 in900.1 mb - 0.01 in0.3 mm 0.01 in0.3 mm
11:35 PM 54.0°F12.2°C 53.4°F11.9°C 98% Calm Calm -- 26.57 in899.8 mb - 0.01 in0.3 mm 0.01 in0.3 mm
11:40 PM 54.0°F12.2°C 53.4°F11.9°C 98% Calm Calm -- 26.58 in900.1 mb - 0.01 in0.3 mm 0.01 in0.3 mm
11:45 PM 55.0°F12.8°C 54.4°F12.4°C 98% Calm Calm -- 26.58 in900.1 mb - 0.01 in0.3 mm 0.01 in0.3 mm
11:50 PM 54.0°F12.2°C 53.4°F11.9°C 98% Calm Calm -- 26.57 in899.8 mb - 0.01 in0.3 mm 0.01 in0.3 mm
11:55 PM 54.0°F12.2°C 53.4°F11.9°C 98% Calm Calm -- 26.57 in899.8 mb - 0.01 in0.3 mm 0.01 in0.3 mm